sensor_id;sensor_type;location;lat;lon;timestamp;temperature;humidity
9223;DHT22;7557;51.698;3.942;2023-06-04T00:00:44;15.80;99.90
9223;DHT22;7557;51.698;3.942;2023-06-04T00:03:12;15.80;99.90
9223;DHT22;7557;51.698;3.942;2023-06-04T00:05:40;15.80;99.90
9223;DHT22;7557;51.698;3.942;2023-06-04T00:08:07;15.90;99.90
9223;DHT22;7557;51.698;3.942;2023-06-04T00:10:34;15.90;99.90
9223;DHT22;7557;51.698;3.942;2023-06-04T00:13:01;15.90;99.90
9223;DHT22;7557;51.698;3.942;2023-06-04T00:15:28;15.90;99.90
9223;DHT22;7557;51.698;3.942;2023-06-04T00:17:55;15.80;99.90
9223;DHT22;7557;51.698;3.942;2023-06-04T00:20:24;15.70;99.90
9223;DHT22;7557;51.698;3.942;2023-06-04T00:22:51;15.60;99.90
9223;DHT22;7557;51.698;3.942;2023-06-04T00:25:19;15.50;99.90
9223;DHT22;7557;51.698;3.942;2023-06-04T00:27:46;15.40;99.90
9223;DHT22;7557;51.698;3.942;2023-06-04T00:30:13;15.30;99.90
9223;DHT22;7557;51.698;3.942;2023-06-04T00:32:41;15.20;99.90
9223;DHT22;7557;51.698;3.942;2023-06-04T00:35:08;15.20;99.90
9223;DHT22;7557;51.698;3.942;2023-06-04T00:37:37;15.20;99.90
9223;DHT22;7557;51.698;3.942;2023-06-04T00:40:06;15.10;99.90
9223;DHT22;7557;51.698;3.942;2023-06-04T00:42:33;15.10;99.90
9223;DHT22;7557;51.698;3.942;2023-06-04T00:45:00;14.90;99.90
9223;DHT22;7557;51.698;3.942;2023-06-04T00:47:59;14.80;99.90
9223;DHT22;7557;51.698;3.942;2023-06-04T00:50:26;14.80;99.90
9223;DHT22;7557;51.698;3.942;2023-06-04T00:52:55;14.70;99.90
9223;DHT22;7557;51.698;3.942;2023-06-04T00:55:23;14.60;99.90
9223;DHT22;7557;51.698;3.942;2023-06-04T00:57:50;14.60;99.90
9223;DHT22;7557;51.698;3.942;2023-06-04T01:00:18;14.60;99.90
9223;DHT22;7557;51.698;3.942;2023-06-04T01:02:48;14.60;99.90
9223;DHT22;7557;51.698;3.942;2023-06-04T01:05:20;14.60;99.90
9223;DHT22;7557;51.698;3.942;2023-06-04T01:07:48;14.60;99.90
9223;DHT22;7557;51.698;3.942;2023-06-04T01:10:18;14.60;99.90
9223;DHT22;7557;51.698;3.942;2023-06-04T01:12:45;14.60;99.90
9223;DHT22;7557;51.698;3.942;2023-06-04T01:15:13;14.70;99.90
9223;DHT22;7557;51.698;3.942;2023-06-04T01:17:41;14.70;99.90
9223;DHT22;7557;51.698;3.942;2023-06-04T01:20:29;14.60;99.90
9223;DHT22;7557;51.698;3.942;2023-06-04T01:23:28;14.60;99.90
9223;DHT22;7557;51.698;3.942;2023-06-04T01:26:01;14.60;99.90
9223;DHT22;7557;51.698;3.942;2023-06-04T01:28:30;14.60;99.90
9223;DHT22;7557;51.698;3.942;2023-06-04T01:31:00;14.60;99.90
9223;DHT22;7557;51.698;3.942;2023-06-04T01:33:27;14.60;99.90
9223;DHT22;7557;51.698;3.942;2023-06-04T01:35:55;14.70;99.90
9223;DHT22;7557;51.698;3.942;2023-06-04T01:38:22;14.60;99.90
9223;DHT22;7557;51.698;3.942;2023-06-04T01:40:49;14.60;99.90
9223;DHT22;7557;51.698;3.942;2023-06-04T01:43:23;14.50;99.90
9223;DHT22;7557;51.698;3.942;2023-06-04T01:45:50;14.50;99.90
9223;DHT22;7557;51.698;3.942;2023-06-04T01:48:17;14.50;99.90
9223;DHT22;7557;51.698;3.942;2023-06-04T01:50:44;14.50;99.90
9223;DHT22;7557;51.698;3.942;2023-06-04T01:53:12;14.60;99.90
9223;DHT22;7557;51.698;3.942;2023-06-04T01:55:39;14.50;99.90
9223;DHT22;7557;51.698;3.942;2023-06-04T01:58:06;14.50;99.90
9223;DHT22;7557;51.698;3.942;2023-06-04T02:00:36;14.40;99.90
9223;DHT22;7557;51.698;3.942;2023-06-04T02:03:03;14.40;99.90
9223;DHT22;7557;51.698;3.942;2023-06-04T02:05:30;14.40;99.90
9223;DHT22;7557;51.698;3.942;2023-06-04T02:07:57;14.50;99.90
9223;DHT22;7557;51.698;3.942;2023-06-04T02:10:27;14.50;99.90
9223;DHT22;7557;51.698;3.942;2023-06-04T02:12:57;14.60;99.90
9223;DHT22;7557;51.698;3.942;2023-06-04T02:15:25;14.50;99.90
9223;DHT22;7557;51.698;3.942;2023-06-04T02:17:56;14.50;99.90
9223;DHT22;7557;51.698;3.942;2023-06-04T02:20:25;14.60;99.90
9223;DHT22;7557;51.698;3.942;2023-06-04T02:22:54;14.70;99.90
9223;DHT22;7557;51.698;3.942;2023-06-04T02:25:21;14.70;99.90
9223;DHT22;7557;51.698;3.942;2023-06-04T02:27:49;14.70;99.90
9223;DHT22;7557;51.698;3.942;2023-06-04T02:30:16;14.70;99.90
9223;DHT22;7557;51.698;3.942;2023-06-04T02:32:43;14.60;99.90
9223;DHT22;7557;51.698;3.942;2023-06-04T02:35:12;14.60;99.90
9223;DHT22;7557;51.698;3.942;2023-06-04T02:37:40;14.60;99.90
9223;DHT22;7557;51.698;3.942;2023-06-04T02:40:09;14.60;99.90
9223;DHT22;7557;51.698;3.942;2023-06-04T02:42:36;14.60;99.90
9223;DHT22;7557;51.698;3.942;2023-06-04T02:45:05;14.60;99.90
9223;DHT22;7557;51.698;3.942;2023-06-04T02:47:32;14.60;99.90
9223;DHT22;7557;51.698;3.942;2023-06-04T02:49:59;14.60;99.90
9223;DHT22;7557;51.698;3.942;2023-06-04T02:52:28;14.60;99.90
9223;DHT22;7557;51.698;3.942;2023-06-04T02:54:56;14.60;99.90
9223;DHT22;7557;51.698;3.942;2023-06-04T02:57:23;14.60;99.90
9223;DHT22;7557;51.698;3.942;2023-06-04T02:59:50;14.60;99.90
9223;DHT22;7557;51.698;3.942;2023-06-04T03:02:17;14.60;99.90
9223;DHT22;7557;51.698;3.942;2023-06-04T03:04:45;14.60;99.90
9223;DHT22;7557;51.698;3.942;2023-06-04T03:07:13;14.60;99.90
9223;DHT22;7557;51.698;3.942;2023-06-04T03:09:42;14.50;99.90
9223;DHT22;7557;51.698;3.942;2023-06-04T03:12:10;14.40;99.90
9223;DHT22;7557;51.698;3.942;2023-06-04T03:14:37;14.30;99.90
9223;DHT22;7557;51.698;3.942;2023-06-04T03:17:05;14.30;99.90
9223;DHT22;7557;51.698;3.942;2023-06-04T03:19:36;14.40;99.90
9223;DHT22;7557;51.698;3.942;2023-06-04T03:22:05;14.40;99.90
9223;DHT22;7557;51.698;3.942;2023-06-04T03:24:34;14.40;99.90
9223;DHT22;7557;51.698;3.942;2023-06-04T03:27:04;14.40;99.90
9223;DHT22;7557;51.698;3.942;2023-06-04T03:29:32;14.50;99.90
9223;DHT22;7557;51.698;3.942;2023-06-04T03:31:59;14.60;99.90
9223;DHT22;7557;51.698;3.942;2023-06-04T03:34:27;14.60;99.90
9223;DHT22;7557;51.698;3.942;2023-06-04T03:36:57;14.50;99.90
9223;DHT22;7557;51.698;3.942;2023-06-04T03:39:25;14.40;99.90
9223;DHT22;7557;51.698;3.942;2023-06-04T03:41:53;14.30;99.90
9223;DHT22;7557;51.698;3.942;2023-06-04T03:44:22;14.20;99.90
9223;DHT22;7557;51.698;3.942;2023-06-04T03:46:50;14.20;99.90
9223;DHT22;7557;51.698;3.942;2023-06-04T03:49:17;14.10;99.90
9223;DHT22;7557;51.698;3.942;2023-06-04T03:51:45;14.10;99.90
9223;DHT22;7557;51.698;3.942;2023-06-04T03:54:14;14.10;99.90
9223;DHT22;7557;51.698;3.942;2023-06-04T03:56:44;14.20;99.90
9223;DHT22;7557;51.698;3.942;2023-06-04T03:59:11;14.30;99.90
9223;DHT22;7557;51.698;3.942;2023-06-04T04:01:40;14.30;99.90
9223;DHT22;7557;51.698;3.942;2023-06-04T04:04:07;14.30;99.90
9223;DHT22;7557;51.698;3.942;2023-06-04T04:06:35;14.30;99.90
9223;DHT22;7557;51.698;3.942;2023-06-04T04:09:03;14.30;99.90
9223;DHT22;7557;51.698;3.942;2023-06-04T04:11:31;14.20;99.90
9223;DHT22;7557;51.698;3.942;2023-06-04T04:13:59;14.20;99.90
9223;DHT22;7557;51.698;3.942;2023-06-04T04:16:26;14.00;99.90
9223;DHT22;7557;51.698;3.942;2023-06-04T04:18:56;14.00;99.90
9223;DHT22;7557;51.698;3.942;2023-06-04T04:21:23;14.00;99.90
9223;DHT22;7557;51.698;3.942;2023-06-04T04:23:50;13.90;99.90
9223;DHT22;7557;51.698;3.942;2023-06-04T04:26:18;14.00;99.90
9223;DHT22;7557;51.698;3.942;2023-06-04T04:28:46;14.00;99.90
9223;DHT22;7557;51.698;3.942;2023-06-04T04:31:13;14.10;99.90
9223;DHT22;7557;51.698;3.942;2023-06-04T04:33:41;14.20;99.90
9223;DHT22;7557;51.698;3.942;2023-06-04T04:36:10;14.20;99.90
9223;DHT22;7557;51.698;3.942;2023-06-04T04:38:39;14.30;99.90
9223;DHT22;7557;51.698;3.942;2023-06-04T04:41:07;14.30;99.90
9223;DHT22;7557;51.698;3.942;2023-06-04T04:43:36;14.40;99.90
9223;DHT22;7557;51.698;3.942;2023-06-04T04:46:05;14.40;99.90
9223;DHT22;7557;51.698;3.942;2023-06-04T04:48:33;14.50;99.90
9223;DHT22;7557;51.698;3.942;2023-06-04T04:51:00;14.60;99.90
9223;DHT22;7557;51.698;3.942;2023-06-04T04:53:29;14.70;99.90
9223;DHT22;7557;51.698;3.942;2023-06-04T04:55:57;14.70;99.90
9223;DHT22;7557;51.698;3.942;2023-06-04T04:58:25;14.80;99.90
9223;DHT22;7557;51.698;3.942;2023-06-04T05:00:52;14.80;99.90
9223;DHT22;7557;51.698;3.942;2023-06-04T05:03:19;14.90;99.90
9223;DHT22;7557;51.698;3.942;2023-06-04T05:05:47;15.00;99.90
9223;DHT22;7557;51.698;3.942;2023-06-04T05:08:14;15.10;99.90
9223;DHT22;7557;51.698;3.942;2023-06-04T05:10:43;15.10;99.90
9223;DHT22;7557;51.698;3.942;2023-06-04T05:13:11;15.30;99.90
9223;DHT22;7557;51.698;3.942;2023-06-04T05:15:38;15.40;99.90
9223;DHT22;7557;51.698;3.942;2023-06-04T05:18:08;15.50;99.90
9223;DHT22;7557;51.698;3.942;2023-06-04T05:20:35;15.60;99.90
9223;DHT22;7557;51.698;3.942;2023-06-04T05:23:04;15.80;99.90
9223;DHT22;7557;51.698;3.942;2023-06-04T05:25:32;15.90;99.90
9223;DHT22;7557;51.698;3.942;2023-06-04T05:28:01;16.10;99.90
9223;DHT22;7557;51.698;3.942;2023-06-04T05:30:29;16.20;99.90
9223;DHT22;7557;51.698;3.942;2023-06-04T05:32:57;16.20;99.90
9223;DHT22;7557;51.698;3.942;2023-06-04T05:35:25;16.20;99.90
9223;DHT22;7557;51.698;3.942;2023-06-04T05:37:52;16.30;99.90
9223;DHT22;7557;51.698;3.942;2023-06-04T05:40:20;16.30;99.90
9223;DHT22;7557;51.698;3.942;2023-06-04T05:42:50;16.30;99.90
9223;DHT22;7557;51.698;3.942;2023-06-04T05:45:19;16.30;99.90
9223;DHT22;7557;51.698;3.942;2023-06-04T05:47:47;16.40;99.90
9223;DHT22;7557;51.698;3.942;2023-06-04T05:50:14;16.40;99.90
9223;DHT22;7557;51.698;3.942;2023-06-04T05:52:42;16.40;99.90
9223;DHT22;7557;51.698;3.942;2023-06-04T05:55:11;16.40;99.90
9223;DHT22;7557;51.698;3.942;2023-06-04T05:57:38;16.40;99.90
9223;DHT22;7557;51.698;3.942;2023-06-04T06:00:07;16.60;99.90
9223;DHT22;7557;51.698;3.942;2023-06-04T06:02:37;16.70;99.90
9223;DHT22;7557;51.698;3.942;2023-06-04T06:05:06;16.60;99.90
9223;DHT22;7557;51.698;3.942;2023-06-04T06:07:34;16.50;99.90
9223;DHT22;7557;51.698;3.942;2023-06-04T06:10:01;16.50;99.90
9223;DHT22;7557;51.698;3.942;2023-06-04T06:12:28;16.70;99.90
9223;DHT22;7557;51.698;3.942;2023-06-04T06:14:56;16.90;99.90
9223;DHT22;7557;51.698;3.942;2023-06-04T06:17:23;17.10;99.90
9223;DHT22;7557;51.698;3.942;2023-06-04T06:19:53;17.10;99.90
9223;DHT22;7557;51.698;3.942;2023-06-04T06:22:21;17.20;99.90
9223;DHT22;7557;51.698;3.942;2023-06-04T06:24:48;17.40;99.90
9223;DHT22;7557;51.698;3.942;2023-06-04T06:27:16;17.40;99.90
9223;DHT22;7557;51.698;3.942;2023-06-04T06:29:43;17.40;99.90
9223;DHT22;7557;51.698;3.942;2023-06-04T06:32:11;17.30;99.90
9223;DHT22;7557;51.698;3.942;2023-06-04T06:34:38;17.20;99.90
9223;DHT22;7557;51.698;3.942;2023-06-04T06:37:08;17.30;99.90
9223;DHT22;7557;51.698;3.942;2023-06-04T06:39:35;17.30;99.90
9223;DHT22;7557;51.698;3.942;2023-06-04T06:42:03;17.20;99.90
9223;DHT22;7557;51.698;3.942;2023-06-04T06:44:30;17.30;99.90
9223;DHT22;7557;51.698;3.942;2023-06-04T06:46:57;17.50;99.30
9223;DHT22;7557;51.698;3.942;2023-06-04T06:49:25;17.80;98.60
9223;DHT22;7557;51.698;3.942;2023-06-04T06:51:52;18.00;99.10
9223;DHT22;7557;51.698;3.942;2023-06-04T06:54:21;18.00;98.80
9223;DHT22;7557;51.698;3.942;2023-06-04T06:56:49;18.10;98.70
9223;DHT22;7557;51.698;3.942;2023-06-04T06:59:16;18.30;97.80
9223;DHT22;7557;51.698;3.942;2023-06-04T07:01:44;18.40;98.10
9223;DHT22;7557;51.698;3.942;2023-06-04T07:04:11;18.40;98.30
9223;DHT22;7557;51.698;3.942;2023-06-04T07:06:38;18.70;98.40
9223;DHT22;7557;51.698;3.942;2023-06-04T07:09:06;18.90;97.90
9223;DHT22;7557;51.698;3.942;2023-06-04T07:11:35;19.00;97.80
9223;DHT22;7557;51.698;3.942;2023-06-04T07:14:03;19.10;98.00
9223;DHT22;7557;51.698;3.942;2023-06-04T07:16:30;19.20;97.60
9223;DHT22;7557;51.698;3.942;2023-06-04T07:18:58;19.20;97.50
9223;DHT22;7557;51.698;3.942;2023-06-04T07:21:25;19.20;97.50
9223;DHT22;7557;51.698;3.942;2023-06-04T07:23:52;19.20;97.00
9223;DHT22;7557;51.698;3.942;2023-06-04T07:26:20;19.20;96.60
9223;DHT22;7557;51.698;3.942;2023-06-04T07:28:49;19.10;96.40
9223;DHT22;7557;51.698;3.942;2023-06-04T07:31:17;19.00;96.60
9223;DHT22;7557;51.698;3.942;2023-06-04T07:33:44;19.20;96.90
9223;DHT22;7557;51.698;3.942;2023-06-04T07:36:12;19.30;96.20
9223;DHT22;7557;51.698;3.942;2023-06-04T07:38:40;19.40;95.90
9223;DHT22;7557;51.698;3.942;2023-06-04T07:41:07;19.40;96.10
9223;DHT22;7557;51.698;3.942;2023-06-04T07:43:35;19.50;96.20
9223;DHT22;7557;51.698;3.942;2023-06-04T07:46:05;19.70;96.40
9223;DHT22;7557;51.698;3.942;2023-06-04T07:48:32;19.70;95.50
9223;DHT22;7557;51.698;3.942;2023-06-04T07:51:00;19.80;96.00
9223;DHT22;7557;51.698;3.942;2023-06-04T07:53:28;19.70;96.10
9223;DHT22;7557;51.698;3.942;2023-06-04T07:55:56;19.60;96.20
9223;DHT22;7557;51.698;3.942;2023-06-04T07:58:23;19.60;96.20
9223;DHT22;7557;51.698;3.942;2023-06-04T08:00:51;19.50;96.40
9223;DHT22;7557;51.698;3.942;2023-06-04T08:03:20;19.50;96.90
9223;DHT22;7557;51.698;3.942;2023-06-04T08:05:48;19.50;96.80
9223;DHT22;7557;51.698;3.942;2023-06-04T08:08:15;19.70;96.50
9223;DHT22;7557;51.698;3.942;2023-06-04T08:10:43;19.90;96.00
9223;DHT22;7557;51.698;3.942;2023-06-04T08:13:11;19.90;95.30
9223;DHT22;7557;51.698;3.942;2023-06-04T08:15:38;19.70;95.80
9223;DHT22;7557;51.698;3.942;2023-06-04T08:18:06;19.90;95.70
9223;DHT22;7557;51.698;3.942;2023-06-04T08:20:35;19.80;95.50
9223;DHT22;7557;51.698;3.942;2023-06-04T08:23:03;19.70;95.20
9223;DHT22;7557;51.698;3.942;2023-06-04T08:25:30;19.60;95.40
9223;DHT22;7557;51.698;3.942;2023-06-04T08:27:59;19.50;95.40
9223;DHT22;7557;51.698;3.942;2023-06-04T08:30:26;19.50;95.60
9223;DHT22;7557;51.698;3.942;2023-06-04T08:32:54;19.70;95.60
9223;DHT22;7557;51.698;3.942;2023-06-04T08:35:21;20.00;95.30
9223;DHT22;7557;51.698;3.942;2023-06-04T08:37:50;20.10;95.10
9223;DHT22;7557;51.698;3.942;2023-06-04T08:40:17;20.40;95.50
9223;DHT22;7557;51.698;3.942;2023-06-04T08:42:45;20.60;95.40
9223;DHT22;7557;51.698;3.942;2023-06-04T08:45:13;20.80;95.10
9223;DHT22;7557;51.698;3.942;2023-06-04T08:47:47;20.90;95.20
9223;DHT22;7557;51.698;3.942;2023-06-04T08:50:17;21.10;94.50
9223;DHT22;7557;51.698;3.942;2023-06-04T08:52:45;21.20;93.10
9223;DHT22;7557;51.698;3.942;2023-06-04T08:55:14;21.00;93.00
9223;DHT22;7557;51.698;3.942;2023-06-04T08:57:42;21.00;93.60
9223;DHT22;7557;51.698;3.942;2023-06-04T09:00:10;21.20;93.80
9223;DHT22;7557;51.698;3.942;2023-06-04T09:02:38;21.30;92.80
9223;DHT22;7557;51.698;3.942;2023-06-04T09:05:06;21.20;93.20
9223;DHT22;7557;51.698;3.942;2023-06-04T09:07:36;21.30;93.40
9223;DHT22;7557;51.698;3.942;2023-06-04T09:10:08;21.50;93.50
9223;DHT22;7557;51.698;3.942;2023-06-04T09:12:42;21.70;93.00
9223;DHT22;7557;51.698;3.942;2023-06-04T09:15:10;21.80;93.10
9223;DHT22;7557;51.698;3.942;2023-06-04T09:17:37;21.90;93.10
9223;DHT22;7557;51.698;3.942;2023-06-04T09:20:06;22.00;91.20
9223;DHT22;7557;51.698;3.942;2023-06-04T09:22:35;21.70;91.50
9223;DHT22;7557;51.698;3.942;2023-06-04T09:25:04;21.70;91.90
9223;DHT22;7557;51.698;3.942;2023-06-04T09:27:40;21.70;92.30
9223;DHT22;7557;51.698;3.942;2023-06-04T09:30:08;21.90;91.80
9223;DHT22;7557;51.698;3.942;2023-06-04T09:32:35;22.00;91.90
9223;DHT22;7557;51.698;3.942;2023-06-04T09:35:10;22.00;91.60
9223;DHT22;7557;51.698;3.942;2023-06-04T09:37:38;22.00;91.30
9223;DHT22;7557;51.698;3.942;2023-06-04T09:40:07;22.00;91.70
9223;DHT22;7557;51.698;3.942;2023-06-04T09:42:47;22.10;91.20
9223;DHT22;7557;51.698;3.942;2023-06-04T09:45:27;22.00;91.50
9223;DHT22;7557;51.698;3.942;2023-06-04T09:47:55;22.10;91.90
9223;DHT22;7557;51.698;3.942;2023-06-04T09:50:25;22.20;91.30
9223;DHT22;7557;51.698;3.942;2023-06-04T09:52:53;22.20;91.00
9223;DHT22;7557;51.698;3.942;2023-06-04T09:55:20;22.20;90.70
9223;DHT22;7557;51.698;3.942;2023-06-04T09:57:50;22.20;91.10
9223;DHT22;7557;51.698;3.942;2023-06-04T10:00:19;22.20;89.80
9223;DHT22;7557;51.698;3.942;2023-06-04T10:02:49;22.10;90.40
9223;DHT22;7557;51.698;3.942;2023-06-04T10:05:16;22.10;89.80
9223;DHT22;7557;51.698;3.942;2023-06-04T10:07:51;22.00;90.00
9223;DHT22;7557;51.698;3.942;2023-06-04T10:10:21;22.20;90.60
9223;DHT22;7557;51.698;3.942;2023-06-04T10:12:56;22.30;90.50
9223;DHT22;7557;51.698;3.942;2023-06-04T10:15:26;22.50;90.80
9223;DHT22;7557;51.698;3.942;2023-06-04T10:17:55;22.60;90.50
9223;DHT22;7557;51.698;3.942;2023-06-04T10:20:22;22.80;90.00
9223;DHT22;7557;51.698;3.942;2023-06-04T10:22:51;23.00;90.20
9223;DHT22;7557;51.698;3.942;2023-06-04T10:25:18;23.10;89.70
9223;DHT22;7557;51.698;3.942;2023-06-04T10:27:52;23.00;89.10
9223;DHT22;7557;51.698;3.942;2023-06-04T10:30:19;22.80;89.30
9223;DHT22;7557;51.698;3.942;2023-06-04T10:32:47;22.90;90.30
9223;DHT22;7557;51.698;3.942;2023-06-04T10:35:15;23.00;90.40
9223;DHT22;7557;51.698;3.942;2023-06-04T10:37:42;23.10;90.10
9223;DHT22;7557;51.698;3.942;2023-06-04T10:40:10;23.10;89.20
9223;DHT22;7557;51.698;3.942;2023-06-04T10:42:38;23.10;89.50
9223;DHT22;7557;51.698;3.942;2023-06-04T10:45:09;23.20;89.80
9223;DHT22;7557;51.698;3.942;2023-06-04T10:47:37;23.10;94.10
9223;DHT22;7557;51.698;3.942;2023-06-04T10:50:08;22.70;95.20
9223;DHT22;7557;51.698;3.942;2023-06-04T10:52:36;22.50;95.10
9223;DHT22;7557;51.698;3.942;2023-06-04T10:55:04;22.30;96.00
9223;DHT22;7557;51.698;3.942;2023-06-04T10:57:33;22.20;96.60
9223;DHT22;7557;51.698;3.942;2023-06-04T11:00:01;22.10;96.60
9223;DHT22;7557;51.698;3.942;2023-06-04T11:02:33;22.00;97.40
9223;DHT22;7557;51.698;3.942;2023-06-04T11:05:01;22.00;96.40
9223;DHT22;7557;51.698;3.942;2023-06-04T11:07:39;21.90;96.70
9223;DHT22;7557;51.698;3.942;2023-06-04T11:10:08;21.70;96.80
9223;DHT22;7557;51.698;3.942;2023-06-04T11:12:42;21.70;97.10
9223;DHT22;7557;51.698;3.942;2023-06-04T11:15:10;21.60;96.90
9223;DHT22;7557;51.698;3.942;2023-06-04T11:17:49;21.60;97.90
9223;DHT22;7557;51.698;3.942;2023-06-04T11:20:17;21.60;97.80
9223;DHT22;7557;51.698;3.942;2023-06-04T11:22:53;21.50;97.60
9223;DHT22;7557;51.698;3.942;2023-06-04T11:25:21;21.40;97.10
9223;DHT22;7557;51.698;3.942;2023-06-04T11:27:49;21.30;98.00
9223;DHT22;7557;51.698;3.942;2023-06-04T11:30:17;21.40;99.00
9223;DHT22;7557;51.698;3.942;2023-06-04T11:32:46;21.50;98.70
9223;DHT22;7557;51.698;3.942;2023-06-04T11:35:14;21.40;97.80
9223;DHT22;7557;51.698;3.942;2023-06-04T11:37:41;21.40;98.00
9223;DHT22;7557;51.698;3.942;2023-06-04T11:40:15;21.20;98.40
9223;DHT22;7557;51.698;3.942;2023-06-04T11:42:45;21.30;98.20
9223;DHT22;7557;51.698;3.942;2023-06-04T11:45:14;21.30;97.90
9223;DHT22;7557;51.698;3.942;2023-06-04T11:47:46;21.20;98.10
9223;DHT22;7557;51.698;3.942;2023-06-04T11:50:14;21.20;98.20
9223;DHT22;7557;51.698;3.942;2023-06-04T11:52:43;21.10;98.10
9223;DHT22;7557;51.698;3.942;2023-06-04T11:55:11;21.10;98.60
9223;DHT22;7557;51.698;3.942;2023-06-04T11:57:39;21.10;98.80
9223;DHT22;7557;51.698;3.942;2023-06-04T12:00:08;21.20;98.40
9223;DHT22;7557;51.698;3.942;2023-06-04T12:02:48;21.20;99.20
9223;DHT22;7557;51.698;3.942;2023-06-04T12:05:19;21.20;98.60
9223;DHT22;7557;51.698;3.942;2023-06-04T12:07:48;21.10;98.80
9223;DHT22;7557;51.698;3.942;2023-06-04T12:10:17;21.00;98.60
9223;DHT22;7557;51.698;3.942;2023-06-04T12:12:45;21.00;98.90
9223;DHT22;7557;51.698;3.942;2023-06-04T12:15:18;21.00;98.70
9223;DHT22;7557;51.698;3.942;2023-06-04T12:17:50;21.00;98.90
9223;DHT22;7557;51.698;3.942;2023-06-04T12:20:32;21.00;98.90
9223;DHT22;7557;51.698;3.942;2023-06-04T12:23:00;21.10;98.60
9223;DHT22;7557;51.698;3.942;2023-06-04T12:25:29;20.90;98.60
9223;DHT22;7557;51.698;3.942;2023-06-04T12:27:57;20.90;98.80
9223;DHT22;7557;51.698;3.942;2023-06-04T12:30:35;20.90;98.40
9223;DHT22;7557;51.698;3.942;2023-06-04T12:33:03;20.80;98.30
9223;DHT22;7557;51.698;3.942;2023-06-04T12:35:35;20.80;98.50
9223;DHT22;7557;51.698;3.942;2023-06-04T12:38:04;20.70;99.60
9223;DHT22;7557;51.698;3.942;2023-06-04T12:40:34;20.80;99.20
9223;DHT22;7557;51.698;3.942;2023-06-04T12:43:02;20.80;98.80
9223;DHT22;7557;51.698;3.942;2023-06-04T12:45:30;20.80;99.40
9223;DHT22;7557;51.698;3.942;2023-06-04T12:47:57;20.80;99.80
9223;DHT22;7557;51.698;3.942;2023-06-04T12:50:25;20.80;99.50
9223;DHT22;7557;51.698;3.942;2023-06-04T12:52:54;20.80;99.50
9223;DHT22;7557;51.698;3.942;2023-06-04T12:55:21;20.70;99.70
9223;DHT22;7557;51.698;3.942;2023-06-04T12:57:49;20.60;99.90
9223;DHT22;7557;51.698;3.942;2023-06-04T13:00:16;20.60;99.90
9223;DHT22;7557;51.698;3.942;2023-06-04T13:02:44;20.60;99.90
9223;DHT22;7557;51.698;3.942;2023-06-04T13:05:12;20.60;99.90
9223;DHT22;7557;51.698;3.942;2023-06-04T13:07:39;20.50;99.80
9223;DHT22;7557;51.698;3.942;2023-06-04T13:10:09;20.50;99.40
9223;DHT22;7557;51.698;3.942;2023-06-04T13:12:37;20.50;99.20
9223;DHT22;7557;51.698;3.942;2023-06-04T13:15:05;20.40;99.70
9223;DHT22;7557;51.698;3.942;2023-06-04T13:17:33;20.40;99.70
9223;DHT22;7557;51.698;3.942;2023-06-04T13:20:00;20.40;99.80
9223;DHT22;7557;51.698;3.942;2023-06-04T13:22:29;20.50;99.20
9223;DHT22;7557;51.698;3.942;2023-06-04T13:24:56;20.40;99.90
9223;DHT22;7557;51.698;3.942;2023-06-04T13:27:25;20.40;99.40
9223;DHT22;7557;51.698;3.942;2023-06-04T13:29:53;20.40;99.90
9223;DHT22;7557;51.698;3.942;2023-06-04T13:32:21;20.40;99.50
9223;DHT22;7557;51.698;3.942;2023-06-04T13:34:48;20.30;99.50
9223;DHT22;7557;51.698;3.942;2023-06-04T13:37:16;20.20;99.30
9223;DHT22;7557;51.698;3.942;2023-06-04T13:39:43;20.20;99.50
9223;DHT22;7557;51.698;3.942;2023-06-04T13:42:11;20.10;99.90
9223;DHT22;7557;51.698;3.942;2023-06-04T13:44:40;20.20;99.80
9223;DHT22;7557;51.698;3.942;2023-06-04T13:47:07;20.20;99.90
9223;DHT22;7557;51.698;3.942;2023-06-04T13:49:35;20.20;99.90
9223;DHT22;7557;51.698;3.942;2023-06-04T13:52:02;20.20;99.90
9223;DHT22;7557;51.698;3.942;2023-06-04T13:54:32;20.10;99.60
9223;DHT22;7557;51.698;3.942;2023-06-04T13:57:02;20.10;99.90
9223;DHT22;7557;51.698;3.942;2023-06-04T13:59:30;20.00;99.90
9223;DHT22;7557;51.698;3.942;2023-06-04T14:02:00;20.00;99.90
9223;DHT22;7557;51.698;3.942;2023-06-04T14:04:28;20.00;99.90
9223;DHT22;7557;51.698;3.942;2023-06-04T14:06:55;20.00;99.90
9223;DHT22;7557;51.698;3.942;2023-06-04T14:09:23;19.90;99.90
9223;DHT22;7557;51.698;3.942;2023-06-04T14:11:50;19.80;99.90
9223;DHT22;7557;51.698;3.942;2023-06-04T14:14:18;19.80;99.90
9223;DHT22;7557;51.698;3.942;2023-06-04T14:16:47;19.80;99.90
9223;DHT22;7557;51.698;3.942;2023-06-04T14:19:16;19.80;99.90
9223;DHT22;7557;51.698;3.942;2023-06-04T14:21:44;19.80;99.90
9223;DHT22;7557;51.698;3.942;2023-06-04T14:24:11;19.80;99.90
9223;DHT22;7557;51.698;3.942;2023-06-04T14:26:39;19.70;99.90
9223;DHT22;7557;51.698;3.942;2023-06-04T14:29:07;19.70;99.90
9223;DHT22;7557;51.698;3.942;2023-06-04T14:31:34;19.70;99.90
9223;DHT22;7557;51.698;3.942;2023-06-04T14:34:02;19.60;99.90
9223;DHT22;7557;51.698;3.942;2023-06-04T14:36:32;19.60;99.90
9223;DHT22;7557;51.698;3.942;2023-06-04T14:38:59;19.70;99.90
9223;DHT22;7557;51.698;3.942;2023-06-04T14:41:27;19.60;99.90
9223;DHT22;7557;51.698;3.942;2023-06-04T14:43:54;19.70;99.90
9223;DHT22;7557;51.698;3.942;2023-06-04T14:46:22;19.70;99.90
9223;DHT22;7557;51.698;3.942;2023-06-04T14:48:50;19.70;99.90
9223;DHT22;7557;51.698;3.942;2023-06-04T14:51:18;19.60;99.90
9223;DHT22;7557;51.698;3.942;2023-06-04T14:53:46;19.60;99.90
9223;DHT22;7557;51.698;3.942;2023-06-04T14:56:14;19.50;99.90
9223;DHT22;7557;51.698;3.942;2023-06-04T14:58:42;19.50;99.90
9223;DHT22;7557;51.698;3.942;2023-06-04T15:01:09;19.50;99.90
9223;DHT22;7557;51.698;3.942;2023-06-04T15:03:39;19.50;99.90
9223;DHT22;7557;51.698;3.942;2023-06-04T15:06:07;19.50;99.90
9223;DHT22;7557;51.698;3.942;2023-06-04T15:08:35;19.60;99.90
9223;DHT22;7557;51.698;3.942;2023-06-04T15:11:04;19.60;99.90
9223;DHT22;7557;51.698;3.942;2023-06-04T15:13:33;19.60;99.90
9223;DHT22;7557;51.698;3.942;2023-06-04T15:16:00;19.70;99.90
9223;DHT22;7557;51.698;3.942;2023-06-04T15:18:27;19.80;99.90
9223;DHT22;7557;51.698;3.942;2023-06-04T15:20:54;19.80;99.90
9223;DHT22;7557;51.698;3.942;2023-06-04T15:23:22;19.70;99.60
9223;DHT22;7557;51.698;3.942;2023-06-04T15:25:50;19.50;99.90
9223;DHT22;7557;51.698;3.942;2023-06-04T15:28:19;19.50;99.90
9223;DHT22;7557;51.698;3.942;2023-06-04T15:30:46;19.50;99.90
9223;DHT22;7557;51.698;3.942;2023-06-04T15:33:13;19.50;99.90
9223;DHT22;7557;51.698;3.942;2023-06-04T15:35:42;19.50;99.90
9223;DHT22;7557;51.698;3.942;2023-06-04T15:38:09;19.60;99.90
9223;DHT22;7557;51.698;3.942;2023-06-04T15:40:37;19.60;99.90
9223;DHT22;7557;51.698;3.942;2023-06-04T15:43:04;19.70;99.90
9223;DHT22;7557;51.698;3.942;2023-06-04T15:45:34;19.70;99.90
9223;DHT22;7557;51.698;3.942;2023-06-04T15:48:01;19.80;99.90
9223;DHT22;7557;51.698;3.942;2023-06-04T15:50:28;19.80;99.90
9223;DHT22;7557;51.698;3.942;2023-06-04T15:52:56;19.70;99.70
9223;DHT22;7557;51.698;3.942;2023-06-04T15:55:23;19.50;99.70
9223;DHT22;7557;51.698;3.942;2023-06-04T15:57:52;19.30;99.90
9223;DHT22;7557;51.698;3.942;2023-06-04T16:00:19;19.20;99.90
9223;DHT22;7557;51.698;3.942;2023-06-04T16:02:48;19.20;99.90
9223;DHT22;7557;51.698;3.942;2023-06-04T16:05:16;19.20;99.90
9223;DHT22;7557;51.698;3.942;2023-06-04T16:07:43;19.20;99.90
9223;DHT22;7557;51.698;3.942;2023-06-04T16:10:11;19.20;99.90